Rolling Meadows, Illinois
Current Conditions -  °F | °C
As of 5:52 AM on Sunday 25 Jan 2015 (Local Time) from KPWK Reporting Station
Overcast Overcast  
Wind Chill: -5°   Ceiling: 700
Heat Index:   Visibility: 10mi
Dew Point: -1°   Wind: 13mph
Humidity: 89%   Direction: 40°NE
Pressure: 29.74"   Gusts: 24mph
Location:  42.08°N, 88.03°W
Report Text: KPWK 251152Z AUTO 04011G21KT 10SM OVC007 01/M01 A2974 RMK AO2 SLP076 T00061011 10011 21006 53012
Loading
Personal Weather Stations






























Interactive Weather Map New forecast layout! Learn more

10-Day Weather Forecast

Advertisements
Track Severe Weather on mobile